Time;durP1;ratioP1;P1;durP2;ratioP2;P2;SDS_P1;SDS_P2;PMS_P1;PMS_P2;Temp;Humidity;BMP_temperature;BMP_pressure;BME280_temperature;BME280_humidity;BME280_pressure;Samples;Min_cycle;Max_cycle;Signal;HPM_P1;HPM_P2
2021/04/26 00:02:10;;;;;;;8.07;3.30;;;8.20;91.90;;;;;;5015628;28;20041;-85
2021/04/26 00:04:36;;;;;;;5.95;3.58;;;8.30;91.50;;;;;;5033553;28;20484;-85
2021/04/26 00:07:02;;;;;;;6.45;3.90;;;8.10;90.80;;;;;;5033572;28;20033;-85
2021/04/26 00:09:27;;;;;;;7.80;3.65;;;8.00;92.40;;;;;;5033498;28;20428;-85
2021/04/26 00:11:53;;;;;;;8.00;3.65;;;7.80;79.70;;;;;;5015376;28;20096;-85
2021/04/26 00:14:19;;;;;;;6.50;3.35;;;7.90;79.60;;;;;;5033240;28;20025;-85
2021/04/26 00:16:45;;;;;;;8.40;3.63;;;8.10;79.50;;;;;;5033157;28;20061;-85
2021/04/26 00:19:11;;;;;;;7.13;3.47;;;8.00;78.80;;;;;;5033113;28;20056;-85
2021/04/26 00:21:36;;;;;;;6.35;3.60;;;7.90;79.00;;;;;;5015363;28;20025;-85
2021/04/26 00:24:02;;;;;;;4.75;3.00;;;7.70;78.80;;;;;;5015386;28;20033;-84
2021/04/26 00:26:28;;;;;;;6.78;3.10;;;7.60;79.50;;;;;;5033709;28;20021;-85
2021/04/26 00:28:54;;;;;;;6.50;3.70;;;7.50;80.00;;;;;;5033078;28;20039;-85
2021/04/26 00:31:20;;;;;;;6.63;2.92;;;7.70;90.10;;;;;;5033332;28;20028;-85
2021/04/26 00:33:46;;;;;;;5.72;3.00;;;7.70;91.00;;;;;;5015268;28;20164;-85
2021/04/26 00:36:14;;;;;;;7.35;3.58;;;;;;;;;;5033010;28;20021;-85
2021/04/26 00:38:40;;;;;;;6.72;3.58;;;7.40;80.70;;;;;;5033189;28;20029;-85
2021/04/26 00:41:06;;;;;;;5.18;3.05;;;7.60;81.70;;;;;;5015870;28;20045;-85
2021/04/26 00:43:32;;;;;;;4.15;2.63;;;7.50;81.20;;;;;;5018972;28;20387;-85
2021/04/26 00:45:57;;;;;;;6.53;3.13;;;7.60;81.50;;;;;;5036616;28;20049;-85
2021/04/26 00:48:23;;;;;;;7.35;3.50;;;7.60;80.00;;;;;;5018931;28;20032;-85
2021/04/26 00:50:49;;;;;;;5.60;2.95;;;7.60;80.40;;;;;;5018873;28;20022;-85
2021/04/26 00:53:16;;;;;;;8.00;3.08;;;7.80;81.10;;;;;;5018721;28;20493;-85
2021/04/26 00:55:43;;;;;;;7.13;3.10;;;8.20;80.60;;;;;;5018777;28;20018;-85
2021/04/26 00:58:09;;;;;;;6.72;3.08;;;8.20;79.00;;;;;;5036549;28;20017;-85
2021/04/26 01:00:35;;;;;;;7.93;2.70;;;8.40;78.00;;;;;;5036502;28;20123;-85
2021/04/26 01:03:02;;;;;;;8.55;3.00;;;8.00;78.70;;;;;;5018611;28;20060;-85
2021/04/26 01:05:30;;;;;;;10.18;3.00;;;7.80;79.10;;;;;;5018707;28;20022;-85
2021/04/26 01:07:56;;;;;;;5.18;2.85;;;7.70;80.20;;;;;;5018531;28;20103;-85
2021/04/26 01:10:26;;;;;;;7.93;2.92;;;7.60;80.00;;;;;;5018589;28;20026;-85
2021/04/26 01:13:10;;;;;;;7.90;2.75;;;7.60;80.80;;;;;;5036171;28;20025;-85
2021/04/26 01:15:39;;;;;;;6.03;3.20;;;7.90;80.50;;;;;;5036256;28;20060;-85
2021/04/26 01:18:21;;;;;;;5.38;2.58;;;7.80;79.90;;;;;;5036145;28;20028;-85
2021/04/26 01:21:12;;;;;;;8.18;2.53;;;7.70;80.10;;;;;;5036177;28;20024;-85
2021/04/26 01:23:37;;;;;;;6.00;2.75;;;7.60;81.40;;;;;;5036026;28;20483;-85
2021/04/26 01:26:05;;;;;;;6.68;2.88;;;7.40;80.50;;;;;;5018254;28;20036;-85
2021/04/26 01:28:59;;;;;;;8.80;2.75;;;7.50;81.00;;;;;;5036181;28;20106;-85
2021/04/26 01:31:43;;;;;;;5.53;2.63;;;7.50;81.60;;;;;;5018126;28;20373;-85
2021/04/26 01:34:09;;;;;;;5.25;2.75;;;7.60;82.40;;;;;;5018204;28;20021;-85
2021/04/26 01:36:35;;;;;;;5.75;2.58;;;7.90;80.30;;;;;;5018090;28;20408;-85
2021/04/26 01:39:01;;;;;;;9.02;2.90;;;7.80;79.90;;;;;;5017973;28;20025;-85
2021/04/26 01:41:30;;;;;;;4.82;2.50;;;7.70;80.00;;;;;;5035278;28;20033;-85
2021/04/26 01:43:57;;;;;;;5.45;2.97;;;7.70;82.80;;;;;;5035742;28;20026;-85
2021/04/26 01:46:25;;;;;;;7.30;2.67;;;7.60;79.70;;;;;;5035478;28;20413;-85
2021/04/26 01:48:53;;;;;;;3.60;2.40;;;7.50;81.80;;;;;;5017882;28;20021;-85
2021/04/26 01:51:20;;;;;;;3.97;2.50;;;7.60;80.60;;;;;;5017791;28;20033;-85
2021/04/26 01:53:47;;;;;;;7.47;2.25;;;7.60;80.60;;;;;;5016658;28;20022;-85
2021/04/26 01:56:14;;;;;;;11.13;2.60;;;7.60;81.00;;;;;;5017721;28;20481;-85
2021/04/26 01:58:42;;;;;;;6.40;2.95;;;7.40;81.90;;;;;;5017698;28;20564;-85
2021/04/26 02:01:13;;;;;;;5.07;2.50;;;7.10;81.10;;;;;;5017652;28;20026;-85
2021/04/26 02:03:40;;;;;;;8.80;2.55;;;7.20;82.60;;;;;;5017589;28;20022;-85
2021/04/26 02:06:07;;;;;;;6.57;3.03;;;7.00;83.00;;;;;;5017587;28;20469;-85
2021/04/26 02:08:33;;;;;;;4.75;2.40;;;6.80;82.40;;;;;;5035302;28;20078;-85
2021/04/26 02:10:59;;;;;;;6.63;2.88;;;6.80;83.10;;;;;;5017502;28;20029;-85
2021/04/26 02:13:26;;;;;;;5.80;2.35;;;6.90;83.20;;;;;;5017329;28;20056;-85
2021/04/26 02:15:54;;;;;;;8.02;2.70;;;7.20;84.10;;;;;;5035134;28;20097;-85
2021/04/26 02:18:20;;;;;;;5.78;2.45;;;7.40;81.60;;;;;;5017316;28;20112;-85
2021/04/26 02:20:46;;;;;;;4.38;2.38;;;7.60;82.70;;;;;;5017268;28;20108;-85
2021/04/26 02:23:12;;;;;;;4.63;2.10;;;7.40;81.10;;;;;;5035245;28;20588;-85
2021/04/26 02:25:38;;;;;;;8.93;2.53;;;7.30;81.60;;;;;;5017064;28;20029;-85
2021/04/26 02:28:04;;;;;;;5.38;2.28;;;7.10;82.20;;;;;;5000965;28;20378;-85
2021/04/26 02:30:30;;;;;;;4.72;2.60;;;7.00;83.00;;;;;;5017071;28;20043;-85
2021/04/26 02:33:10;;;;;;;4.40;2.42;;;7.00;82.10;;;;;;5016984;28;20029;-85
2021/04/26 02:35:45;;;;;;;5.43;2.13;;;6.80;82.70;;;;;;5016966;28;20017;-85
2021/04/26 02:38:24;;;;;;;7.05;2.67;;;6.80;82.90;;;;;;5016903;28;20603;-85
2021/04/26 02:40:55;;;;;;;7.18;2.53;;;7.00;82.90;;;;;;5016865;28;20543;-85
2021/04/26 02:43:21;;;;;;;3.78;2.17;;;7.00;82.70;;;;;;5034596;28;20017;-85
2021/04/26 02:45:53;;;;;;;6.07;2.25;;;6.90;83.40;;;;;;5016587;28;20045;-84
2021/04/26 02:48:20;;;;;;;4.53;2.03;;;7.40;82.80;;;;;;5017110;28;20025;-85
2021/04/26 02:50:50;;;;;;;5.00;2.08;;;7.20;82.60;;;;;;5034509;28;20036;-85
2021/04/26 02:53:17;;;;;;;7.20;2.47;;;7.70;83.70;;;;;;5016539;28;20481;-85
2021/04/26 02:55:44;;;;;;;5.50;2.58;;;7.30;81.20;;;;;;5034357;28;20022;-85
2021/04/26 02:58:11;;;;;;;3.40;1.95;;;7.20;82.00;;;;;;5034632;28;20104;-85
2021/04/26 03:00:37;;;;;;;6.90;2.30;;;7.20;82.90;;;;;;5034229;28;20021;-86
2021/04/26 03:03:03;;;;;;;4.22;1.98;;;7.00;82.90;;;;;;5016485;28;20048;-86
2021/04/26 03:05:29;;;;;;;4.80;2.30;;;6.80;83.30;;;;;;5016404;28;20037;-86
2021/04/26 03:07:55;;;;;;;3.55;2.13;;;6.90;84.00;;;;;;5016346;28;20033;-86
2021/04/26 03:10:21;;;;;;;5.43;2.08;;;7.10;83.50;;;;;;5016371;28;20022;-86
2021/04/26 03:12:52;;;;;;;6.22;2.22;;;7.20;81.90;;;;;;5016228;28;20472;-86
2021/04/26 03:15:26;;;;;;;6.15;2.22;;;7.00;83.60;;;;;;5016251;28;20026;-85
2021/04/26 03:17:53;;;;;;;5.90;2.20;;;7.40;83.90;;;;;;5016286;28;20109;-86
2021/04/26 03:20:21;;;;;;;5.85;2.67;;;8.00;81.30;;;;;;5016119;28;20116;-86
2021/04/26 03:22:48;;;;;;;6.90;2.20;;;8.20;79.20;;;;;;5016085;28;20116;-86
2021/04/26 03:25:19;;;;;;;4.30;2.00;;;7.20;80.80;;;;;;5016057;28;20031;-86
2021/04/26 03:27:47;;;;;;;5.85;2.25;;;7.20;83.00;;;;;;5034080;28;20021;-86
2021/04/26 03:30:15;;;;;;;5.28;2.33;;;7.30;82.00;;;;;;5016072;28;20026;-86
2021/04/26 03:32:43;;;;;;;8.13;2.40;;;7.30;83.30;;;;;;5033569;28;20029;-86
2021/04/26 03:35:13;;;;;;;6.88;2.20;;;7.80;81.80;;;;;;5033877;28;20040;-85
2021/04/26 03:37:40;;;;;;;6.68;2.55;;;7.50;83.10;;;;;;5015971;28;20021;-86
2021/04/26 03:40:07;;;;;;;9.05;2.50;;;7.80;81.80;;;;;;5015809;28;20029;-86
2021/04/26 03:42:33;;;;;;;5.07;2.40;;;7.20;80.50;;;;;;5033485;28;20037;-86
2021/04/26 03:44:59;;;;;;;5.32;2.30;;;6.60;83.70;;;;;;4999438;28;20053;-85
2021/04/26 03:47:25;;;;;;;6.15;2.25;;;6.60;83.10;;;;;;5015752;28;20033;-86
2021/04/26 03:49:50;;;;;;;7.18;2.67;;;6.90;83.90;;;;;;5015810;28;20025;-86
2021/04/26 03:52:16;;;;;;;6.60;2.08;;;6.90;82.30;;;;;;5015660;28;20028;-85
2021/04/26 03:54:42;;;;;;;5.93;2.20;;;6.90;83.00;;;;;;5015763;28;20025;-86
2021/04/26 03:57:07;;;;;;;4.15;1.85;;;7.50;81.90;;;;;;5033378;28;20051;-86
2021/04/26 03:59:33;;;;;;;4.20;1.90;;;7.70;82.70;;;;;;5015610;28;20566;-86
2021/04/26 04:01:59;;;;;;;6.47;2.70;;;7.60;82.60;;;;;;5033334;28;20018;-86
2021/04/26 04:04:25;;;;;;;8.02;2.55;;;7.60;79.70;;;;;;5015590;28;20029;-86
2021/04/26 04:06:51;;;;;;;7.15;2.20;;;7.70;81.90;;;;;;5033272;28;20025;-85
2021/04/26 04:09:17;;;;;;;7.68;2.53;;;7.80;78.70;;;;;;5015497;28;20026;-86
2021/04/26 04:11:43;;;;;;;6.97;2.85;;;7.20;81.80;;;;;;5015398;28;20481;-85
2021/04/26 04:14:09;;;;;;;5.63;2.85;;;7.10;81.30;;;;;;5015565;28;20473;-85
2021/04/26 04:16:35;;;;;;;7.60;2.30;;;7.30;82.00;;;;;;5034620;28;20017;-85
2021/04/26 04:19:01;;;;;;;8.48;2.83;;;7.20;83.00;;;;;;5019770;28;20025;-86
2021/04/26 04:21:27;;;;;;;6.78;2.28;;;7.60;81.60;;;;;;5019489;28;20026;-86
2021/04/26 04:23:52;;;;;;;6.32;2.42;;;7.70;82.30;;;;;;5037203;28;20528;-86
2021/04/26 04:26:19;;;;;;;3.80;2.08;;;7.30;79.70;;;;;;5037149;28;20028;-86
2021/04/26 04:28:45;;;;;;;5.93;2.38;;;6.80;82.10;;;;;;5037066;28;20194;-85
2021/04/26 04:31:12;;;;;;;7.28;2.80;;;6.30;83.10;;;;;;5019282;28;20025;-86
2021/04/26 04:33:37;;;;;;;8.45;2.50;;;6.40;85.10;;;;;;5036941;28;20037;-85
2021/04/26 04:36:04;;;;;;;6.53;2.13;;;6.50;85.80;;;;;;5019217;28;20022;-86
2021/04/26 04:38:29;;;;;;;8.32;2.45;;;6.90;84.00;;;;;;5019070;28;20511;-86
2021/04/26 04:40:56;;;;;;;9.23;2.65;;;6.50;83.40;;;;;;5019109;28;20025;-86
2021/04/26 04:43:23;;;;;;;8.35;3.25;;;6.20;84.90;;;;;;5018941;28;20028;-86
2021/04/26 04:45:49;;;;;;;7.65;2.88;;;6.40;84.80;;;;;;5036705;28;20128;-86
2021/04/26 04:48:15;;;;;;;8.30;2.70;;;6.30;84.60;;;;;;5018932;28;20057;-86
2021/04/26 04:50:41;;;;;;;7.28;2.50;;;6.40;84.60;;;;;;5018877;28;20036;-86
2021/04/26 04:53:07;;;;;;;4.22;2.53;;;6.50;87.00;;;;;;5036561;28;20033;-86
2021/04/26 04:55:32;;;;;;;8.18;2.58;;;6.80;84.60;;;;;;5018811;28;20469;-85
2021/04/26 04:57:58;;;;;;;10.02;2.92;;;7.50;83.40;;;;;;5036795;28;20025;-85
2021/04/26 05:00:24;;;;;;;6.22;2.60;;;7.50;81.40;;;;;;5036479;28;20021;-85
2021/04/26 05:02:50;;;;;;;12.25;3.50;;;7.20;81.30;;;;;;5018582;28;20120;-85
2021/04/26 05:05:16;;;;;;;14.95;5.35;;;7.10;82.70;;;;;;5018573;28;20033;-85
2021/04/26 05:07:41;;;;;;;4.05;2.47;;;7.30;82.10;;;;;;5018589;28;20547;-86
2021/04/26 05:10:08;;;;;;;8.30;3.03;;;7.60;82.80;;;;;;5018621;28;20385;-85
2021/04/26 05:12:34;;;;;;;6.60;2.45;;;8.10;81.50;;;;;;5018567;28;20101;-86
2021/04/26 05:15:01;;;;;;;10.23;3.10;;;8.10;79.30;;;;;;5036332;28;20432;-85
2021/04/26 05:17:27;;;;;;;5.57;2.85;;;8.20;80.00;;;;;;5036446;28;20017;-85
2021/04/26 05:19:54;;;;;;;6.28;2.90;;;8.20;80.00;;;;;;5018321;28;20022;-86
2021/04/26 05:22:20;;;;;;;7.70;3.28;;;7.70;80.00;;;;;;5018363;28;20072;-86
2021/04/26 05:24:45;;;;;;;9.05;3.28;;;7.20;82.10;;;;;;5018309;28;20035;-85
2021/04/26 05:27:11;;;;;;;6.80;2.92;;;6.90;83.50;;;;;;5018170;28;20393;-86
2021/04/26 05:29:37;;;;;;;4.18;2.97;;;6.70;85.20;;;;;;5035961;28;20033;-85
2021/04/26 05:32:03;;;;;;;7.18;3.13;;;7.10;84.00;;;;;;5018071;28;20078;-85
2021/04/26 05:34:29;;;;;;;11.68;3.45;;;7.60;83.50;;;;;;5018119;28;20116;-85
2021/04/26 05:36:54;;;;;;;4.75;2.97;;;7.50;82.60;;;;;;5018104;28;20021;-85
2021/04/26 05:39:20;;;;;;;6.78;3.25;;;7.50;83.40;;;;;;5036143;28;20182;-85
2021/04/26 05:41:46;;;;;;;11.00;3.58;;;7.30;82.70;;;;;;5035702;28;20435;-85
2021/04/26 05:44:12;;;;;;;6.80;3.30;;;7.20;83.00;;;;;;5035641;28;20029;-85
2021/04/26 05:46:38;;;;;;;9.88;3.60;;;6.80;85.80;;;;;;5017654;28;20049;-85
2021/04/26 05:49:03;;;;;;;11.18;4.30;;;6.90;84.70;;;;;;5035959;28;20108;-86
2021/04/26 05:51:29;;;;;;;9.63;4.40;;;7.10;85.40;;;;;;5017708;28;20029;-86
2021/04/26 05:53:56;;;;;;;11.93;4.60;;;7.30;84.60;;;;;;5017790;28;20025;-85
2021/04/26 05:56:21;;;;;;;10.20;4.68;;;7.20;84.90;;;;;;5017686;28;20045;-85
2021/04/26 05:58:48;;;;;;;12.68;5.93;;;7.10;85.40;;;;;;5035435;28;20025;-85
2021/04/26 06:01:15;;;;;;;9.77;4.40;;;7.10;85.80;;;;;;5035359;28;20025;-85
2021/04/26 06:03:41;;;;;;;18.48;4.32;;;7.30;85.80;;;;;;5018143;28;20025;-86
2021/04/26 06:06:06;;;;;;;11.95;3.95;;;7.10;86.00;;;;;;5035365;28;20367;-86
2021/04/26 06:08:32;;;;;;;10.63;4.25;;;7.10;86.70;;;;;;5035225;28;20033;-86
2021/04/26 06:10:58;;;;;;;12.10;3.67;;;7.40;86.50;;;;;;5035212;28;20381;-86
2021/04/26 06:13:25;;;;;;;12.30;3.90;;;7.60;85.50;;;;;;5017307;28;20026;-86
2021/04/26 06:15:50;;;;;;;7.20;3.40;;;7.60;85.40;;;;;;5035105;28;20026;-86
2021/04/26 06:18:20;;;;;;;14.48;4.65;;;7.70;85.70;;;;;;5035088;28;20020;-86
2021/04/26 06:20:47;;;;;;;7.15;3.80;;;8.00;84.70;;;;;;5017028;28;20112;-86
2021/04/26 06:23:13;;;;;;;8.25;3.67;;;8.00;85.10;;;;;;5035201;28;20030;-86
2021/04/26 06:25:40;;;;;;;11.30;3.92;;;8.10;84.60;;;;;;5017097;28;20029;-86
2021/04/26 06:28:07;;;;;;;12.82;4.10;;;7.90;84.90;;;;;;5017178;28;20433;-85
2021/04/26 06:30:33;;;;;;;9.30;3.47;;;8.00;85.00;;;;;;5017036;28;20112;-86
2021/04/26 06:32:59;;;;;;;8.00;3.67;;;8.20;84.30;;;;;;5016894;28;20137;-84
2021/04/26 06:35:25;;;;;;;18.45;4.28;;;8.40;84.10;;;;;;5016940;28;20030;-89
2021/04/26 06:37:51;;;;;;;8.52;3.80;;;8.40;84.10;;;;;;5016871;28;20108;-88
2021/04/26 06:40:17;;;;;;;7.40;3.97;;;8.50;83.90;;;;;;5034473;28;20022;-89
2021/04/26 06:42:43;;;;;;;9.00;3.70;;;8.90;82.40;;;;;;5016838;28;20076;-88
2021/04/26 06:45:10;;;;;;;8.15;3.97;;;8.90;82.70;;;;;;5017357;28;20056;-88
2021/04/26 06:47:36;;;;;;;6.57;3.95;;;8.90;82.10;;;;;;5016874;28;20033;-88
2021/04/26 06:50:02;;;;;;;7.65;3.58;;;8.90;81.50;;;;;;5034607;28;20389;-88
2021/04/26 06:52:28;;;;;;;9.73;3.42;;;9.00;81.50;;;;;;5016734;28;20052;-88
2021/04/26 06:54:53;;;;;;;9.50;3.67;;;8.90;82.00;;;;;;5017064;28;20064;-89
2021/04/26 06:57:19;;;;;;;11.35;4.00;;;9.00;82.10;;;;;;5016729;28;20144;-89
2021/04/26 06:59:45;;;;;;;11.60;4.65;;;9.20;81.00;;;;;;5016691;28;20485;-89
2021/04/26 07:02:12;;;;;;;15.73;4.68;;;8.90;80.90;;;;;;5034636;28;20036;-88
2021/04/26 07:04:37;;;;;;;7.80;3.13;;;8.90;82.10;;;;;;5016866;28;20421;-89
2021/04/26 07:07:03;;;;;;;7.45;4.18;;;9.00;81.60;;;;;;5016495;28;20057;-88
2021/04/26 07:09:29;;;;;;;10.80;3.80;;;9.10;80.10;;;;;;5016475;28;20091;-89
2021/04/26 07:11:55;;;;;;;13.45;3.67;;;9.40;79.80;;;;;;5034249;28;20513;-87
2021/04/26 07:14:21;;;;;;;12.23;4.00;;;9.80;78.60;;;;;;5017210;28;20029;-88
2021/04/26 07:16:47;;;;;;;9.07;4.43;;;9.70;78.80;;;;;;5034499;28;20022;-89
2021/04/26 07:19:13;;;;;;;7.68;3.10;;;9.70;79.60;;;;;;5016497;28;20113;-89
2021/04/26 07:21:39;;;;;;;11.48;3.70;;;9.90;79.00;;;;;;5033884;28;20021;-89
2021/04/26 07:24:05;;;;;;;8.00;3.75;;;9.80;78.20;;;;;;5016337;28;20511;-88
2021/04/26 07:26:30;;;;;;;15.02;4.10;;;9.90;78.80;;;;;;5033931;28;20044;-89
2021/04/26 07:28:56;;;;;;;9.15;3.67;;;10.10;78.70;;;;;;5016445;28;20108;-88
2021/04/26 07:31:22;;;;;;;13.68;4.18;;;10.00;77.80;;;;;;5016360;28;20538;-88
2021/04/26 07:33:49;;;;;;;10.60;3.70;;;9.80;77.60;;;;;;5016812;28;20026;-89
2021/04/26 07:36:15;;;;;;;10.30;3.80;;;9.80;77.40;;;;;;5034985;28;20155;-88
2021/04/26 07:38:41;;;;;;;9.60;4.05;;;10.10;78.10;;;;;;5016147;28;20056;-88
2021/04/26 07:41:06;;;;;;;11.35;4.25;;;10.30;77.40;;;;;;5015940;28;20045;-88
2021/04/26 07:43:32;;;;;;;6.70;3.22;;;10.40;76.50;;;;;;5033655;28;20025;-87
2021/04/26 07:45:58;;;;;;;8.73;3.75;;;10.30;77.60;;;;;;5015611;28;20492;-87
2021/04/26 07:48:24;;;;;;;8.45;3.40;;;10.70;76.60;;;;;;5033547;28;20539;-88
2021/04/26 07:50:50;;;;;;;7.53;3.83;;;10.60;75.50;;;;;;5032892;28;20199;-87
2021/04/26 07:53:16;;;;;;;8.55;4.10;;;10.80;75.20;;;;;;5015638;28;20029;-88
2021/04/26 07:55:42;;;;;;;10.25;3.53;;;10.60;76.20;;;;;;5033377;28;20354;-87
2021/04/26 07:58:08;;;;;;;8.35;3.97;;;10.70;75.90;;;;;;5015710;28;20025;-88
2021/04/26 08:00:34;;;;;;;11.50;4.32;;;10.90;75.30;;;;;;5015628;28;20112;-88
2021/04/26 08:03:00;;;;;;;11.60;4.35;;;10.80;72.80;;;;;;5033415;28;20135;-89
2021/04/26 08:05:27;;;;;;;8.00;3.67;;;10.90;73.60;;;;;;5015656;28;20588;-90
2021/04/26 08:07:54;;;;;;;15.45;3.83;;;11.10;73.40;;;;;;5015521;28;20025;-88
2021/04/26 08:10:19;;;;;;;9.52;3.78;;;11.30;73.70;;;;;;5015633;28;20030;-87
2021/04/26 08:12:45;;;;;;;5.68;3.40;;;11.20;72.70;;;;;;5033251;28;20056;-88
2021/04/26 08:15:11;;;;;;;8.65;4.15;;;11.20;73.60;;;;;;5015589;28;20028;-89
2021/04/26 08:17:37;;;;;;;8.25;3.90;;;11.40;73.30;;;;;;5033295;28;20022;-89
2021/04/26 08:20:05;;;;;;;7.03;3.90;;;11.70;72.40;;;;;;5033278;28;20022;-88
2021/04/26 08:22:31;;;;;;;10.63;3.20;;;11.70;70.90;;;;;;5033223;28;20025;-88
2021/04/26 08:24:57;;;;;;;8.45;4.03;;;11.70;71.70;;;;;;5015478;28;20554;-88
2021/04/26 08:27:23;;;;;;;8.80;3.75;;;11.70;71.00;;;;;;5015328;28;20021;-88
2021/04/26 08:29:49;;;;;;;12.73;3.75;;;11.80;71.50;;;;;;5015435;28;20163;-89
2021/04/26 08:32:15;;;;;;;9.27;3.72;;;12.20;71.30;;;;;;5032963;28;20067;-90
2021/04/26 08:34:40;;;;;;;9.43;3.75;;;12.20;70.90;;;;;;5033390;28;20473;-89
2021/04/26 08:37:06;;;;;;;17.10;4.40;;;12.40;71.00;;;;;;5015408;28;20025;-88
2021/04/26 08:39:32;;;;;;;9.20;3.40;;;12.60;70.30;;;;;;5015215;28;20024;-88
2021/04/26 08:41:58;;;;;;;11.02;4.30;;;12.80;69.90;;;;;;5015333;28;20040;-87
2021/04/26 08:44:23;;;;;;;10.85;3.65;;;12.70;68.90;;;;;;5015263;28;20171;-88
2021/04/26 08:46:49;;;;;;;11.20;3.25;;;12.90;69.00;;;;;;5015239;28;20393;-87
2021/04/26 08:49:19;;;;;;;8.88;3.65;;;13.10;67.90;;;;;;5016292;28;20116;-88
2021/04/26 08:51:46;;;;;;;11.38;4.20;;;13.10;68.00;;;;;;5033731;28;20048;-87
2021/04/26 08:54:17;;;;;;;14.52;3.92;;;13.30;67.60;;;;;;5015601;28;20021;-87
2021/04/26 08:56:44;;;;;;;15.55;4.10;;;13.30;66.90;;;;;;5033610;28;20026;-87
2021/04/26 08:59:10;;;;;;;11.90;4.03;;;13.20;68.00;;;;;;5015648;28;20028;-87
2021/04/26 09:01:36;;;;;;;7.88;4.03;;;13.20;67.30;;;;;;5033475;28;20021;-87
2021/04/26 09:04:10;;;;;;;10.85;4.28;;;13.10;66.20;;;;;;5036806;28;20079;-89
2021/04/26 09:07:01;;;;;;;10.60;4.07;;;13.20;67.30;;;;;;5019532;28;20416;-87
2021/04/26 09:09:34;;;;;;;14.98;4.22;;;13.30;67.40;;;;;;5019296;28;20029;-87
2021/04/26 09:12:00;;;;;;;13.07;4.50;;;13.40;66.70;;;;;;5036933;28;20141;-83
2021/04/26 09:14:40;;;;;;;17.85;4.20;;;13.50;67.40;;;;;;5036801;28;20043;-86
2021/04/26 09:17:26;;;;;;;9.32;4.43;;;13.70;66.70;;;;;;5018776;28;20029;-88
2021/04/26 09:19:53;;;;;;;12.00;4.43;;;13.90;65.10;;;;;;5018314;28;20116;-88
2021/04/26 09:22:39;;;;;;;9.55;3.85;;;14.20;64.00;;;;;;5018526;28;20030;-87
2021/04/26 09:25:41;;;;;;;12.77;4.20;;;14.00;65.10;;;;;;5018616;28;20114;-89
2021/04/26 09:28:07;;;;;;;8.98;4.22;;;14.30;63.40;;;;;;5018648;28;20032;-88
2021/04/26 09:30:57;;;;;;;9.50;4.15;;;14.50;62.70;;;;;;5018626;28;20029;-86
2021/04/26 09:33:29;;;;;;;8.55;3.92;;;14.70;62.70;;;;;;5035789;28;20032;-87
2021/04/26 09:36:20;;;;;;;11.90;4.55;;;14.80;62.90;;;;;;5036209;28;20045;-87
2021/04/26 09:38:50;;;;;;;11.70;3.90;;;14.90;63.10;;;;;;5018040;28;20029;-89
2021/04/26 09:41:29;;;;;;;8.95;3.92;;;14.90;61.90;;;;;;5035845;28;20377;-87
2021/04/26 09:44:01;;;;;;;12.05;4.07;;;14.90;63.40;;;;;;5018054;28;20566;-88
2021/04/26 09:46:45;;;;;;;8.07;3.90;;;15.00;63.60;;;;;;5017888;28;20405;-88
2021/04/26 09:49:15;;;;;;;9.93;3.38;;;15.20;63.30;;;;;;5017984;28;20053;-87
2021/04/26 09:51:43;;;;;;;8.25;4.25;;;15.40;62.70;;;;;;5017949;28;20033;-88
2021/04/26 09:54:09;;;;;;;7.95;3.60;;;15.30;61.20;;;;;;5017898;28;20029;-87
2021/04/26 09:56:43;;;;;;;17.90;4.78;;;15.40;62.00;;;;;;5019077;28;20029;-85
2021/04/26 09:59:09;;;;;;;;;;;15.60;61.10;;;;;;5019404;28;20017;-88
2021/04/26 10:01:36;;;;;;;10.55;4.07;;;15.60;61.50;;;;;;5036559;28;19905;-89
2021/04/26 10:04:04;;;;;;;22.17;4.07;;;15.90;60.70;;;;;;5035907;28;20053;-87
2021/04/26 10:06:30;;;;;;;6.85;3.17;;;16.00;60.30;;;;;;5017898;28;20025;-88
2021/04/26 10:08:58;;;;;;;11.60;4.38;;;16.20;60.00;;;;;;5017693;28;20500;-89
2021/04/26 10:11:26;;;;;;;14.90;4.57;;;16.00;59.10;;;;;;5035441;28;20017;-89
2021/04/26 10:14:09;;;;;;;7.47;3.72;;;16.20;59.80;;;;;;5034153;28;20029;-88
2021/04/26 10:17:08;;;;;;;12.52;3.92;;;16.60;59.10;;;;;;5018219;28;20029;-88
2021/04/26 10:19:37;;;;;;;7.53;3.60;;;16.80;58.50;;;;;;5018265;28;20041;-88
2021/04/26 10:22:04;;;;;;;10.82;3.95;;;16.90;58.90;;;;;;5017269;28;20025;-89
2021/04/26 10:24:32;;;;;;;9.88;3.53;;;16.90;57.40;;;;;;5017702;28;20099;-89
2021/04/26 10:27:09;;;;;;;9.38;4.28;;;16.90;58.00;;;;;;5017943;28;20022;-89
2021/04/26 10:29:40;;;;;;;9.65;3.40;;;16.80;57.80;;;;;;5017269;28;20032;-88
2021/04/26 10:32:14;;;;;;;9.15;4.07;;;17.20;57.20;;;;;;5017179;28;20037;-88
2021/04/26 10:34:42;;;;;;;7.68;3.10;;;17.30;56.50;;;;;;5034947;28;20018;-88
2021/04/26 10:37:14;;;;;;;6.60;3.15;;;17.60;56.60;;;;;;5017096;28;20032;-89
2021/04/26 10:40:00;;;;;;;6.70;3.00;;;17.70;53.50;;;;;;5017076;28;20083;-89
2021/04/26 10:42:42;;;;;;;6.63;3.33;;;18.00;51.60;;;;;;5034970;28;20030;-89
2021/04/26 10:45:19;;;;;;;9.88;3.50;;;17.70;50.20;;;;;;5034784;28;20534;-89
2021/04/26 10:47:51;;;;;;;8.20;3.17;;;18.10;52.10;;;;;;5016970;28;20048;-89
2021/04/26 10:50:19;;;;;;;5.00;2.45;;;18.20;50.70;;;;;;5016998;28;20029;-89
2021/04/26 10:52:55;;;;;;;7.13;3.03;;;18.50;51.50;;;;;;5034412;28;20448;-89
2021/04/26 10:55:22;;;;;;;7.28;3.17;;;18.40;51.90;;;;;;5034516;28;20055;-88
2021/04/26 10:57:51;;;;;;;8.70;3.40;;;19.00;49.60;;;;;;5016444;28;20017;-88
2021/04/26 11:00:23;;;;;;;6.20;3.25;;;19.10;49.90;;;;;;5034880;28;20018;-88
2021/04/26 11:02:59;;;;;;;6.60;3.10;;;19.10;48.40;;;;;;5016601;28;20068;-90
2021/04/26 11:05:28;;;;;;;6.90;3.47;;;19.20;48.80;;;;;;5016818;28;20361;-88
2021/04/26 11:10:34;;;;;;;5.60;3.10;;;19.50;50.50;;;;;;5034481;28;20547;-89
2021/04/26 11:13:22;;;;;;;5.15;3.22;;;19.30;48.20;;;;;;5016431;28;20025;-87
2021/04/26 11:16:09;;;;;;;7.43;3.90;;;19.20;48.20;;;;;;5016703;28;20512;-89
2021/04/26 11:18:43;;;;;;;8.60;2.92;;;19.20;47.40;;;;;;5017150;28;20029;-89
2021/04/26 11:21:09;;;;;;;6.78;3.58;;;19.40;48.60;;;;;;5016610;28;20112;-89
2021/04/26 11:23:52;;;;;;;7.68;3.63;;;19.70;46.80;;;;;;5017081;28;20072;-88
2021/04/26 11:26:21;;;;;;;7.35;3.17;;;19.90;47.30;;;;;;5016490;28;20052;-89
2021/04/26 11:29:08;;;;;;;7.00;3.20;;;20.10;47.40;;;;;;5033893;28;20021;-90
2021/04/26 11:31:43;;;;;;;10.15;3.28;;;20.30;45.60;;;;;;5033987;28;20014;-89
2021/04/26 11:34:11;;;;;;;6.72;2.88;;;20.50;44.10;;;;;;5016050;28;20040;-89
2021/04/26 11:36:58;;;;;;;11.02;3.08;;;20.20;45.70;;;;;;5016149;28;20500;-89
2021/04/26 11:39:34;;;;;;;6.07;2.55;;;20.10;45.40;;;;;;4999144;28;20034;-89
2021/04/26 11:42:01;;;;;;;6.28;3.10;;;20.40;45.50;;;;;;5033838;28;20029;-89
2021/04/26 11:44:34;;;;;;;9.80;3.30;;;20.30;44.80;;;;;;5015839;28;20036;-88
2021/04/26 11:47:05;;;;;;;11.57;3.55;;;20.50;46.50;;;;;;5016130;28;20481;-89
2021/04/26 11:49:49;;;;;;;7.82;3.28;;;20.70;43.80;;;;;;5016029;28;20036;-89
2021/04/26 11:52:19;;;;;;;7.10;3.22;;;20.90;44.70;;;;;;5015766;28;20396;-89
2021/04/26 11:54:52;;;;;;;10.23;3.33;;;21.10;45.10;;;;;;5015754;28;20497;-90
2021/04/26 11:57:23;;;;;;;7.80;3.80;;;20.80;44.40;;;;;;5033739;28;20029;-89
2021/04/26 11:59:53;;;;;;;9.88;2.90;;;20.90;43.60;;;;;;5015967;28;20057;-87
2021/04/26 12:02:32;;;;;;;6.15;2.80;;;21.60;58.90;;;;;;5016291;28;20567;-89
2021/04/26 12:05:23;;;;;;;13.77;3.50;;;21.70;43.80;;;;;;5016560;28;20025;-88
2021/04/26 12:07:53;;;;;;;10.15;3.20;;;21.80;42.20;;;;;;5015687;28;20136;-89
2021/04/26 12:10:21;;;;;;;8.80;4.00;;;22.10;43.00;;;;;;5015635;28;20029;-90
2021/04/26 12:12:48;;;;;;;5.80;2.92;;;22.20;41.90;;;;;;5015524;28;20029;-90
2021/04/26 12:15:19;;;;;;;8.25;3.67;;;21.90;42.70;;;;;;5016217;28;20389;-89
2021/04/26 12:17:49;;;;;;;9.48;3.70;;;22.30;41.90;;;;;;5033970;28;20022;-90
2021/04/26 12:20:27;;;;;;;7.38;3.33;;;22.20;41.90;;;;;;5019402;28;20056;-88
2021/04/26 12:22:55;;;;;;;7.90;2.67;;;22.60;41.50;;;;;;5036271;28;20108;-88
2021/04/26 12:25:23;;;;;;;9.57;2.95;;;22.80;42.00;;;;;;5016740;28;20032;-88
2021/04/26 12:27:58;;;;;;;9.68;3.25;;;22.50;42.70;;;;;;5034042;28;20044;-88
2021/04/26 12:30:25;;;;;;;6.75;2.80;;;22.50;41.40;;;;;;5016588;28;20116;-90
2021/04/26 12:32:52;;;;;;;10.18;3.13;;;22.50;42.00;;;;;;5016496;28;20488;-88
2021/04/26 12:35:29;;;;;;;7.90;2.88;;;22.30;41.20;;;;;;5016801;28;20032;-88
2021/04/26 12:37:56;;;;;;;9.02;3.08;;;22.50;42.70;;;;;;5019114;28;20143;-88
2021/04/26 12:40:24;;;;;;;9.05;3.10;;;22.80;41.10;;;;;;5021747;28;20030;-88
2021/04/26 12:42:53;;;;;;;6.65;2.88;;;22.70;41.00;;;;;;5021208;28;20022;-88
2021/04/26 12:45:24;;;;;;;6.72;2.80;;;22.50;42.20;;;;;;5020604;28;20077;-88
2021/04/26 12:47:59;;;;;;;6.68;3.70;;;22.40;42.30;;;;;;5021109;28;20393;-88
2021/04/26 12:50:42;;;;;;;8.85;3.42;;;22.50;42.20;;;;;;5020431;28;20025;-89
2021/04/26 12:53:18;;;;;;;7.50;3.85;;;22.60;42.10;;;;;;5038817;28;20047;-88
2021/04/26 12:55:56;;;;;;;5.47;2.40;;;23.20;42.10;;;;;;5022489;28;20029;-88
2021/04/26 12:58:33;;;;;;;6.72;3.20;;;23.10;41.60;;;;;;5021984;28;20018;-89
2021/04/26 13:01:02;;;;;;;8.65;3.17;;;22.60;41.80;;;;;;5020825;28;20013;-87
2021/04/26 13:03:34;;;;;;;5.82;3.00;;;22.80;41.80;;;;;;5038006;28;20021;-89